Flight Track Log - Related Links

Times and Time Zones

All times are in EDT time to prevent confusion due to time zone crossing. See the B-2086 flight status page for this flight to view local times or setup timezone preferences in your user account.

Time Position Orientation Groundspeed Altitude Reporting Facility
EDT Latitude Longitude Course Direction KTS MPH feet Rate Location/Type
Mon 02:45:00 PM 40.3527 116.2782 319° Northwest  Level Estimated
Mon 02:46:00 PM 40.4434 116.1756 319° Northwest  Level Estimated
Mon 02:47:00 PM 40.5340 116.0727 319° Northwest  Level Estimated
Mon 02:48:00 PM 40.6245 115.9695 319° Northwest  Level Estimated
Mon 02:49:00 PM 40.7150 115.8660 319° Northwest  Level Estimated
Mon 02:50:00 PM 40.8053 115.7622 319° Northwest  Level Estimated
Mon 02:51:00 PM 40.8955 115.6581 319° Northwest  Level Estimated
Mon 02:52:00 PM 40.9857 115.5538 319° Northwest  Level Estimated
Mon 02:53:00 PM 41.0757 115.4492 319° Northwest  Level Estimated
Mon 02:54:00 PM 41.1657 115.3443 319° Northwest  Level Estimated
Mon 02:55:00 PM 41.2555 115.2391 319° Northwest  Level Estimated
Mon 02:56:00 PM 41.3453 115.1336 319° Northwest  Level Estimated
Mon 02:57:00 PM 41.4350 115.0278 319° Northwest  Level Estimated
Mon 02:58:00 PM 41.5245 114.9217 318° Northwest  Level Estimated
Mon 02:59:00 PM 41.6140 114.8154 318° Northwest  Level Estimated
Mon 03:00:00 PM 41.7034 114.7087 318° Northwest  Level Estimated
Mon 03:01:00 PM 41.7926 114.6017 318° Northwest  Level Estimated
Mon 03:02:00 PM 41.8818 114.4945 318° Northwest  Level Estimated
Mon 03:03:00 PM 41.9709 114.3869 318° Northwest  Level Estimated
Mon 03:04:00 PM 42.0598 114.2791 318° Northwest  Level Estimated
Mon 03:05:00 PM 42.1487 114.1709 318° Northwest  Level Estimated
Mon 03:06:00 PM 42.2375 114.0624 318° Northwest  Level Estimated
Mon 03:07:00 PM 42.3262 113.9537 318° Northwest  Level Estimated
Mon 03:08:00 PM 42.4147 113.8446 318° Northwest  Level Estimated
Mon 03:09:00 PM 42.5032 113.7352 318° Northwest  Level Estimated
Mon 03:10:00 PM 42.5915 113.6255 318° Northwest  Level Estimated
Mon 03:11:00 PM 42.6798 113.5155 318° Northwest  Level Estimated
Mon 03:12:00 PM 42.7679 113.4052 317° Northwest  Level Estimated
Mon 03:13:00 PM 42.8560 113.2946 317° Northwest  Level Estimated
Mon 03:14:00 PM 42.9439 113.1836 317° Northwest  Level Estimated
Mon 03:15:00 PM 43.0317 113.0723 317° Northwest  Level Estimated
Mon 03:16:00 PM 43.1194 112.9608 317° Northwest  Level Estimated
Mon 03:17:00 PM 43.2071 112.8489 317° Northwest  Level Estimated
Mon 03:18:00 PM 43.2946 112.7366 317° Northwest  Level Estimated
Mon 03:19:00 PM 43.3819 112.6241 317° Northwest  Level Estimated
Mon 03:20:00 PM 43.4692 112.5112 317° Northwest  Level Estimated
Mon 03:21:00 PM 43.5564 112.3980 317° Northwest  Level Estimated
Mon 03:22:00 PM 43.6434 112.2845 317° Northwest  Level Estimated
Mon 03:23:00 PM 43.7304 112.1706 317° Northwest  Level Estimated
Mon 03:24:00 PM 43.8172 112.0564 317° Northwest  Level Estimated
Mon 03:25:00 PM 43.9039 111.9419 316° Northwest  Level Estimated
Mon 03:26:00 PM 43.9905 111.8271 316° Northwest  Level Estimated
Mon 03:27:00 PM 44.0770 111.7119 316° Northwest  Level Estimated
Mon 03:28:00 PM 44.1634 111.5963 316° Northwest  Level Estimated
Mon 03:29:00 PM 44.2496 111.4805 316° Northwest  Level Estimated
Mon 03:30:00 PM 44.3358 111.3643 316° Northwest  Level Estimated
Mon 03:31:00 PM 44.4218 111.2477 316° Northwest  Level Estimated
Mon 03:32:00 PM 44.5077 111.1308 316° Northwest  Level Estimated
Mon 03:33:00 PM 44.5934 111.0136 316° Northwest  Level Estimated
Mon 03:34:00 PM 44.6791 110.8960 316° Northwest  Level Estimated
Mon 03:35:00 PM 44.7646 110.7781 316° Northwest  Level Estimated
Mon 03:36:00 PM 44.8501 110.6598 316° Northwest  Level Estimated
Mon 03:37:00 PM 44.9353 110.5412 315° West  Level Estimated
Mon 03:38:00 PM 45.0205 110.4222 315° West  Level Estimated
Mon 03:39:00 PM 45.1056 110.3029 315° West  Level Estimated
Mon 03:40:00 PM 45.1905 110.1832 315° West  Level Estimated
Mon 03:41:00 PM 45.2753 110.0631 315° West  Level Estimated
Mon 03:42:00 PM 45.3599 109.9427 315° West  Level Estimated
Mon 03:43:00 PM 45.4445 109.8219 315° West  Level Estimated
Mon 03:44:00 PM 45.5289 109.7008 315° West  Level Estimated
Mon 03:45:00 PM 45.6132 109.5793 315° West  Level Estimated
Mon 03:46:00 PM 45.6973 109.4575 315° West  Level Estimated
Mon 03:47:00 PM 45.7814 109.3352 315° West  Level Estimated
Mon 03:48:00 PM 45.8653 109.2126 315° West  Level Estimated
Mon 03:49:00 PM 45.9490 109.0897 314° West  Level Estimated
Mon 03:50:00 PM 46.0327 108.9663 314° West  Level Estimated
Mon 03:51:00 PM 46.1162 108.8426 314° West  Level Estimated
Mon 03:52:00 PM 46.1995 108.7185 314° West  Level Estimated
Mon 03:53:00 PM 46.2827 108.5940 314° West  Level Estimated
Mon 03:54:00 PM 46.3658 108.4692 314° West  Level Estimated
Mon 03:55:00 PM 46.4488 108.3440 314° West  Level Estimated
Mon 03:56:00 PM 46.5316 108.2184 314° West  Level Estimated
Mon 03:57:00 PM 46.6143 108.0924 314° West  Level Estimated
Mon 03:58:00 PM 46.6968 107.9660 314° West  Level Estimated
Mon 03:59:00 PM 46.7793 107.8393 314° West  Level Estimated
Mon 04:00:00 PM 46.8615 107.7121 313° West  Level Estimated
Mon 04:01:00 PM 46.9436 107.5846 313° West  Level Estimated
Mon 04:02:00 PM 47.0256 107.4566 313° West  Level Estimated
Mon 04:03:00 PM 47.1074 107.3283 313° West  Level Estimated
Mon 04:04:00 PM 47.1891 107.1996 313° West  Level Estimated
Mon 04:05:00 PM 47.2707 107.0705 313° West  Level Estimated
Mon 04:06:00 PM 47.3521 106.9410 313° West  Level Estimated
Mon 04:07:00 PM 47.4333 106.8111 313° West  Level Estimated
Mon 04:08:00 PM 47.5145 106.6808 313° West  Level Estimated
Mon 04:09:00 PM 47.5954 106.5500 313° West  Level Estimated
Mon 04:10:00 PM 47.6762 106.4189 312° West  Level Estimated
Mon 04:11:00 PM 47.7569 106.2874 312° West  Level Estimated
Mon 04:12:00 PM 47.8374 106.1555 312° West  Level Estimated
Mon 04:13:00 PM 47.9178 106.0231 312° West  Level Estimated
Mon 04:14:00 PM 47.9980 105.8904 312° West  Level Estimated
Mon 04:15:00 PM 48.0780 105.7572 312° West  Level Estimated
Mon 04:16:00 PM 48.1579 105.6236 312° West  Level Estimated
Mon 04:17:00 PM 48.2377 105.4896 312° West  Level Estimated
Mon 04:18:00 PM 48.3173 105.3552 312° West  Level Estimated
Mon 04:19:00 PM 48.3967 105.2203 312° West  Level Estimated
Mon 04:20:00 PM 48.4760 105.0851 312° West  Level Estimated
Mon 04:21:00 PM 48.5551 104.9494 311° West  Level Estimated
Mon 04:22:00 PM 48.6341 104.8133 311° West  Level Estimated
Mon 04:23:00 PM 48.7129 104.6768 311° West  Level Estimated
Mon 04:24:00 PM 48.7915 104.5398 311° West  Level Estimated
Mon 04:25:00 PM 48.8700 104.4024 311° West  Level Estimated
Mon 04:26:00 PM 48.9483 104.2646 311° West  Level Estimated
Mon 04:27:00 PM 49.0264 104.1263 311° West  Level Estimated
Mon 04:28:00 PM 49.1044 103.9876 311° West  Level Estimated
Mon 04:29:00 PM 49.1822 103.8485 311° West  Level Estimated
Mon 04:30:00 PM 49.2598 103.7090 310° West  Level Estimated
Mon 04:31:00 PM 49.3373 103.5690 310° West  Level Estimated
Mon 04:32:00 PM 49.4146 103.4285 310° West  Level Estimated
Mon 04:33:00 PM 49.4917 103.2876 310° West  Level Estimated
Mon 04:34:00 PM 49.5687 103.1463 310° West  Level Estimated
Mon 04:35:00 PM 49.6455 103.0045 310° West  Level Estimated
Mon 04:36:00 PM 49.7221 102.8623 310° West  Level Estimated
Mon 04:37:00 PM 49.7985 102.7196 310° West  Level Estimated
Mon 04:38:00 PM 49.8748 102.5765 310° West  Level Estimated
Mon 04:39:00 PM 49.9509 102.4329 310° West  Level Estimated
Mon 04:40:00 PM 50.0268 102.2889 309° West  Level Estimated
Mon 04:41:00 PM 50.1026 102.1444 309° West  Level Estimated
Mon 04:42:00 PM 50.1781 101.9995 309° West  Level Estimated
Mon 04:43:00 PM 50.2535 101.8541 309° West  Level Estimated
Mon 04:44:00 PM 50.3287 101.7082 309° West  Level Estimated
Mon 04:45:00 PM 50.4037 101.5619 309° West  Level Estimated
Mon 04:46:00 PM 50.4785 101.4151 309° West  Level Estimated
Mon 04:47:00 PM 50.5531 101.2679 309° West  Level Estimated
Mon 04:48:00 PM 50.6276 101.1201 309° West  Level Estimated
Mon 04:49:00 PM 50.7018 100.9720 308° West  Level Estimated
Mon 04:50:00 PM 50.7759 100.8233 308° West  Level Estimated
Mon 04:51:00 PM 50.8498 100.6742 308° West  Level Estimated
Mon 04:52:00 PM 50.9235 100.5246 308° West  Level Estimated
Mon 04:53:00 PM 50.9970 100.3745 308° West  Level Estimated
Mon 04:54:00 PM 51.0703 100.2240 308° West  Level Estimated
Mon 04:55:00 PM 51.1434 100.0729 308° West  Level Estimated
Mon 04:56:00 PM 51.2163 99.9214 308° West  Level Estimated
Mon 04:57:00 PM 51.2891 99.7695 307° West  Level Estimated
Mon 04:58:00 PM 51.3616 99.6170 307° West  Level Estimated
Mon 04:59:00 PM 51.4339 99.4641 307° West  Level Estimated
Mon 05:00:00 PM 51.5061 99.3106 307° West  Level Estimated
Mon 05:01:00 PM 51.5780 99.1567 307° West  Level Estimated
Mon 05:02:00 PM 51.6497 99.0023 307° West  Level Estimated
Mon 05:03:00 PM 51.7212 98.8474 307° West  Level Estimated
Mon 05:04:00 PM 51.7925 98.6920 307° West  Level Estimated
Mon 05:05:00 PM 51.8637 98.5361 306° West  Level Estimated
Mon 05:06:00 PM 51.9346 98.3798 306° West  Level Estimated
Mon 05:07:00 PM 52.0053 98.2229 306° West  Level Estimated
Mon 05:08:00 PM 52.0758 98.0656 306° West  Level Estimated
Mon 05:09:00 PM 52.1460 97.9077 306° West  Level Estimated
Mon 05:10:00 PM 52.2161 97.7493 306° West  Level Estimated
Mon 05:11:00 PM 52.2860 97.5905 306° West  Level Estimated
Mon 05:12:00 PM 52.3556 97.4311 306° West  Level Estimated
Mon 05:13:00 PM 52.4250 97.2713 306° West  Level Estimated
Mon 05:14:00 PM 52.4943 97.1109 305° West  Level Estimated
Mon 05:15:00 PM 52.5632 96.9501 305° West  Level Estimated
Mon 05:16:00 PM 52.6320 96.7887 305° West  Level Estimated
Mon 05:17:00 PM 52.7006 96.6268 305° West  Level Estimated
Mon 05:18:00 PM 52.7689 96.4644 305° West  Level Estimated
Mon 05:19:00 PM 52.8370 96.3015 305° West  Level Estimated
Mon 05:20:00 PM 52.9049 96.1381 305° West  Level Estimated
Mon 05:21:00 PM 52.9725 95.9742 304° West  Level Estimated
Mon 05:22:00 PM 53.0400 95.8098 304° West  Level Estimated
Mon 05:23:00 PM 53.1072 95.6448 304° West  Level Estimated
Mon 05:24:00 PM 53.1742 95.4793 304° West  Level Estimated
Mon 05:25:00 PM 53.2409 95.3134 304° West  Level Estimated
Mon 05:26:00 PM 53.3074 95.1469 304° West  Level Estimated
Mon 05:27:00 PM 53.3737 94.9799 304° West  Level Estimated
Mon 05:28:00 PM 53.4398 94.8123 304° West  Level Estimated
Mon 05:29:00 PM 53.5056 94.6443 303° West  Level Estimated
Mon 05:30:00 PM 53.5712 94.4757 303° West  Level Estimated
Mon 05:31:00 PM 53.6365 94.3066 303° West  Level Estimated
Mon 05:32:00 PM 53.7016 94.1370 303° West  Level Estimated
Mon 05:33:00 PM 53.7665 93.9668 303° West  Level Estimated
Mon 05:34:00 PM 53.8311 93.7962 303° West  Level Estimated
Mon 05:35:00 PM 53.8955 93.6249 303° West  Level Estimated
Mon 05:36:00 PM 53.9596 93.4532 302° West  Level Estimated
Mon 05:37:00 PM 54.0235 93.2810 302° West  Level Estimated
Mon 05:38:00 PM 54.0872 93.1082 302° West  Level Estimated
Mon 05:39:00 PM 54.1506 92.9349 302° West  Level Estimated
Mon 05:40:00 PM 54.2137 92.7610 302° West  Level Estimated
Mon 05:41:00 PM 54.2766 92.5866 302° West  Level Estimated
Mon 05:42:00 PM 54.3392 92.4117 302° West  Level Estimated
Mon 05:43:00 PM 54.4016 92.2363 301° West  Level Estimated
Mon 05:44:00 PM 54.4637 92.0603 301° West  Level Estimated
Mon 05:45:00 PM 54.5256 91.8838 301° West  Level Estimated
Mon 05:46:00 PM 54.5872 91.7068 301° West  Level Estimated
Mon 05:47:00 PM 54.6486 91.5292 301° West  Level Estimated
Mon 05:48:00 PM 54.7097 91.3511 301° West  Level Estimated
Mon 05:49:00 PM 54.7705 91.1724 301° West  Level Estimated
Mon 05:50:00 PM 54.8311 90.9932 300° West  Level Estimated
Mon 05:51:00 PM 54.8914 90.8135 300° West  Level Estimated
Mon 05:52:00 PM 54.9515 90.6333 300° West  Level Estimated
Mon 05:53:00 PM 55.0112 90.4525 300° West  Level Estimated
Mon 05:54:00 PM 55.0708 90.2711 300° West  Level Estimated
Mon 05:55:00 PM 55.1300 90.0892 300° West  Level Estimated
Mon 05:56:00 PM 55.1890 89.9068 300° West  Level Estimated
Mon 05:57:00 PM 55.2477 89.7239 299° West  Level Estimated
Mon 05:58:00 PM 55.3061 89.5404 299° West  Level Estimated
Mon 05:59:00 PM 55.3642 89.3563 299° West  Level Estimated
Mon 06:00:00 PM 55.4221 89.1717 299° West  Level Estimated
Mon 06:01:00 PM 55.4797 88.9866 299° West  Level Estimated
Mon 06:02:00 PM 55.5370 88.8010 299° West  Level Estimated
Mon 06:03:00 PM 55.5940 88.6148 299° West  Level Estimated
Mon 06:04:00 PM 55.6507 88.4280 298° West  Level Estimated
Mon 06:05:00 PM 55.7072 88.2407 298° West  Level Estimated
Mon 06:06:00 PM 55.7634 88.0529 298° West  Level Estimated
Mon 06:07:00 PM 55.8192 87.8646 298° West  Level Estimated
Mon 06:08:00 PM 55.8748 87.6757 298° West  Level Estimated
Mon 06:09:00 PM 55.9301 87.4862 298° West  Level Estimated
Mon 06:10:00 PM 55.9852 87.2962 297° West  Level Estimated
Mon 06:11:00 PM 56.0399 87.1057 297° West  Level Estimated
Mon 06:12:00 PM 56.0943 86.9147 297° West  Level Estimated
Mon 06:13:00 PM 56.1484 86.7231 297° West  Level Estimated
Mon 06:14:00 PM 56.2023 86.5309 297° West  Level Estimated
Mon 06:15:00 PM 56.2558 86.3382 297° West  Level Estimated
Mon 06:16:00 PM 56.3090 86.1450 296° West  Level Estimated
Mon 06:17:00 PM 56.3620 85.9513 296° West  Level Estimated
Mon 06:18:00 PM 56.4146 85.7570 296° West  Level Estimated
Mon 06:19:00 PM 56.4669 85.5621 296° West  Level Estimated
Mon 06:20:00 PM 56.5189 85.3668 296° West  Level Estimated
Mon 06:21:00 PM 56.5706 85.1709 296° West  Level Estimated
Mon 06:22:00 PM 56.6221 84.9744 296° West  Level Estimated
Mon 06:23:00 PM 56.6731 84.7775 295° West  Level Estimated
Mon 06:24:00 PM 56.7239 84.5800 295° West  Level Estimated
Mon 06:25:00 PM 56.7744 84.3820 295° West  Level Estimated
Mon 06:26:00 PM 56.8245 84.1834 295° West  Level Estimated
Mon 06:26:47 PM 56.2290 89.3040 295° West 435 501 32,000  Level FlightAware ADS-B
Mon 06:27:00 PM 56.8744 83.9843 295° West  Level Estimated
Mon 06:27:37 PM 56.2680 89.1440 294° West 436 502 32,000  Level FlightAware ADS-B
Mon 06:28:17 PM 56.3020 89.0070 294° West 436 502 32,000  Level FlightAware ADS-B
Mon 06:29:02 PM 56.3390 88.8550 294° West 435 501 32,000  Level FlightAware ADS-B
Mon 06:29:42 PM 56.3680 88.7140 290° West 438 504 32,000  Level FlightAware ADS-B
Mon 06:30:22 PM 56.3960 88.5790 291° West 438 504 32,000  Level FlightAware ADS-B
Mon 06:31:07 PM 56.4260 88.4390 291° West 440 506 32,000  Level FlightAware ADS-B
Mon 06:31:47 PM 56.4560 88.2930 290° West 441 507 32,000  Level FlightAware ADS-B
Mon 06:32:32 PM 56.4870 88.1450 291° West 441 507 32,000  Level FlightAware ADS-B
Mon 06:33:12 PM 56.5170 87.9970 290° West 441 507 32,000  Level FlightAware ADS-B
Mon 06:33:52 PM 56.5460 87.8590 291° West 441 507 32,000  Level FlightAware ADS-B
Mon 06:34:37 PM 56.5780 87.7010 290° West 441 507 32,000  Level FlightAware ADS-B
Mon 06:35:17 PM 56.6050 87.5650 290° West 441 507 32,000  Level FlightAware ADS-B
Mon 06:35:57 PM 56.6330 87.4250 290° West 441 507 32,000  Level FlightAware ADS-B
Mon 06:36:32 PM 56.6570 87.3030 290° West 440 506 32,000  Level FlightAware ADS-B
Mon 06:37:02 PM 56.6780 87.1980 290° West 441 507 32,000  Level FlightAware ADS-B
Mon 06:37:42 PM 56.7040 87.0630 289° West 443 510 32,000  Level FlightAware ADS-B
Mon 06:38:27 PM 56.7350 86.9050 290° West 444 511 32,000  Level FlightAware ADS-B
Mon 06:39:07 PM 56.7630 86.7610 290° West 444 511 32,000  Level FlightAware ADS-B
Mon 06:39:52 PM 56.7940 86.6010 290° West 445 512 32,000  Level FlightAware ADS-B
Mon 06:40:32 PM 56.8210 86.4580 289° West 446 513 32,000  Level FlightAware ADS-B
Mon 06:41:17 PM 56.8510 86.2990 289° West 446 513 32,000  Level FlightAware ADS-B
Mon 06:41:57 PM 56.8760 86.1630 289° West 444 511 32,000  Level FlightAware ADS-B
Mon 06:42:37 PM 56.9040 86.0150 289° West 442 509 32,000  Level FlightAware ADS-B
Mon 06:43:22 PM 56.9330 85.8580 289° West 443 510 32,000  Level FlightAware ADS-B
Mon 06:44:02 PM 56.9590 85.7140 288° West 444 511 32,000  Level FlightAware ADS-B
Mon 06:44:47 PM 56.9880 85.5550 289° West 446 513 32,000  Level FlightAware ADS-B
Mon 06:45:27 PM 57.0130 85.4120 288° West 446 513 32,000  Level FlightAware ADS-B
Mon 06:46:12 PM 57.0420 85.2520 288° West 448 516 32,000  Level FlightAware ADS-B
Mon 06:46:52 PM 57.0680 85.1060 288° West 448 516 32,000  Level FlightAware ADS-B
Mon 06:47:32 PM 57.0930 84.9600 288° West 449 517 32,000  Level FlightAware ADS-B
Mon 06:48:17 PM 57.1200 84.8050 288° West 449 517 32,000  Level FlightAware ADS-B
Mon 06:48:57 PM 57.1440 84.6510 286° West 450 518 32,000  Level FlightAware ADS-B
Mon 06:49:42 PM 57.1670 84.4840 284° West 451 519 32,000  Level FlightAware ADS-B
Mon 06:50:22 PM 57.1880 84.3370 285° West 452 520 32,000  Level FlightAware ADS-B
Mon 06:51:02 PM 57.2080 84.1880 284° West 452 520 32,000  Level FlightAware ADS-B
Mon 06:51:47 PM 57.2310 84.0180 284° West 453 521 32,000  Level FlightAware ADS-B
Mon 06:52:27 PM 57.2510 83.8670 284° West 453 521 32,000  Level FlightAware ADS-B
Mon 06:53:12 PM 57.2730 83.7000 284° West 453 521 32,000  Level FlightAware ADS-B
Mon 06:53:52 PM 57.2930 83.5500 284° West 454 522 32,000  Level FlightAware ADS-B
Mon 06:54:32 PM 57.3110 83.4090 283° West 455 524 32,000  Level FlightAware ADS-B
Mon 06:55:17 PM 57.3350 83.2270 284° West 455 524 32,000  Level FlightAware ADS-B
Mon 06:55:57 PM 57.3530 83.0810 283° West 456 525 32,000  Level FlightAware ADS-B
Mon 06:56:37 PM 57.3730 82.9270 284° West 457 526 32,000  Level FlightAware ADS-B
Mon 06:57:22 PM 57.3940 82.7570 283° West 457 526 32,000  Level FlightAware ADS-B
Mon 06:58:02 PM 57.4120 82.6040 282° West 457 526 32,000  Level FlightAware ADS-B
Mon 06:58:57 PM 57.4360 82.4080 283° West 457 526 32,000  Level FlightAware ADS-B
Mon 06:59:37 PM 57.4520 82.2780 283° West 457 526 32,000  Level FlightAware ADS-B
Mon 07:00:17 PM 57.4690 82.1480 284° West 457 526 32,000  Level FlightAware ADS-B
Mon 07:01:07 PM 57.4890 81.9850 283° West 457 526 32,000  Level FlightAware ADS-B
Mon 07:01:47 PM 57.5050 81.8550 283° West 457 526 32,000  Level FlightAware ADS-B
Mon 07:02:27 PM 57.5210 81.7240 283° West 457 526 32,000  Level FlightAware ADS-B
Mon 07:03:07 PM 57.5370 81.5940 283° West 457 526 32,000  Level FlightAware ADS-B
Mon 07:03:47 PM 57.5530 81.4630 283° West 457 526 32,000  Level FlightAware ADS-B
Mon 07:04:37 PM 57.5740 81.3000 284° West 457 526 32,000  Level FlightAware ADS-B
Mon 07:05:17 PM 57.5900 81.1690 283° West 457 526 32,000  Level FlightAware ADS-B
Mon 07:05:57 PM 57.6060 81.0390 283° West 457 526 32,000  Level FlightAware ADS-B
Mon 07:06:37 PM 57.6220 80.9080 283° West 457 526 32,000  Level FlightAware ADS-B
Mon 07:07:17 PM 57.6380 80.7770 283° West 457 526 32,000  Level FlightAware ADS-B
Mon 07:07:57 PM 57.6540 80.6460 283° West 457 526 32,000  Level FlightAware ADS-B
Mon 07:10:00 PM 57.7440 80.2187 292° West  Level Estimated
Mon 07:11:00 PM 57.7874 80.0094 291° West  Level Estimated
Mon 07:12:00 PM 57.8304 79.7997 291° West  Level Estimated
Mon 07:13:00 PM 57.8731 79.5895 291° West  Level Estimated
Mon 07:14:00 PM 57.9155 79.3787 291° West  Level Estimated
Mon 07:15:00 PM 57.9575 79.1675 291° West  Level Estimated
Mon 07:16:00 PM 57.9991 78.9558 290° West  Level Estimated
Mon 07:17:00 PM 58.0405 78.7436 290° West  Level Estimated
Mon 07:18:00 PM 58.0814 78.5309 290° West  Level Estimated
Mon 07:19:00 PM 58.1220 78.3177 290° West  Level Estimated
Mon 07:20:00 PM 58.1622 78.1040 290° West  Level Estimated
Mon 07:21:00 PM 58.2021 77.8899 290° West  Level Estimated
Mon 07:22:00 PM 58.2416 77.6752 289° West  Level Estimated
Mon 07:23:00 PM 58.2807 77.4601 289° West  Level Estimated
Mon 07:24:00 PM 58.3195 77.2445 289° West  Level Estimated
Mon 07:25:00 PM 58.3580 77.0285 289° West  Level Estimated
Mon 07:26:00 PM 58.3960 76.8120 289° West  Level Estimated
Mon 07:27:00 PM 58.4337 76.5950 288° West  Level Estimated
Mon 07:28:00 PM 58.4711 76.3775 288° West  Level Estimated
Mon 07:29:00 PM 58.5080 76.1596 288° West  Level Estimated
Mon 07:30:00 PM 58.5446 75.9413 288° West  Level Estimated
Mon 07:31:00 PM 58.5808 75.7224 288° West  Level Estimated
Mon 07:32:00 PM 58.6167 75.5032 288° West  Level Estimated
Mon 07:33:00 PM 58.6521 75.2834 287° West  Level Estimated
Mon 07:34:00 PM 58.6872 75.0633 287° West  Level Estimated
Mon 07:34:27 PM 59.3090 74.5680 287° West 475 547 32,000  Level FlightAware ADS-B
Mon 07:35:07 PM 59.3440 74.4120 294° West 482 555 32,000  Level FlightAware ADS-B
Mon 07:35:52 PM 59.3700 74.2240 285° West 486 559 32,000  Level FlightAware ADS-B
Mon 07:36:32 PM 59.3880 74.0480 281° West 489 563 32,000  Level FlightAware ADS-B
Mon 07:37:12 PM 59.4070 73.8750 282° West 491 565 32,000  Level FlightAware ADS-B
Mon 07:37:57 PM 59.4300 73.6810 283° West 493 567 32,000  Level FlightAware ADS-B
Mon 07:38:37 PM 59.4490 73.5040 282° West 495 570 32,000  Level FlightAware ADS-B
Mon 07:39:22 PM 59.4720 73.3040 283° West 497 572 32,000  Level FlightAware ADS-B
Mon 07:40:02 PM 59.4910 73.1280 282° West 501 577 32,000  Level FlightAware ADS-B
Mon 07:40:37 PM 59.5080 72.9740 282° West 504 580 32,000  Level FlightAware ADS-B
Mon 07:41:27 PM 59.5320 72.7450 282° West 507 583 32,000  Level FlightAware ADS-B
Mon 07:42:07 PM 59.5510 72.5700 282° West 508 585 32,000  Level FlightAware ADS-B
Mon 07:42:52 PM 59.5720 72.3630 281° West 507 583 32,000  Level FlightAware ADS-B
Mon 07:43:32 PM 59.5900 72.1820 281° West 506 582 32,000  Level FlightAware ADS-B
Mon 07:44:12 PM 59.6070 72.0170 282° West 503 579 32,000  Level FlightAware ADS-B
Mon 07:44:47 PM 59.6240 71.8500 281° West 503 579 32,000  Level FlightAware ADS-B
Mon 07:46:02 PM 59.6560 71.5230 281° West 503 579 32,000  Level FlightAware ADS-B
Mon 07:46:47 PM 59.6740 71.3390 281° West 503 579 32,000  Level FlightAware ADS-B
Mon 07:47:27 PM 59.6890 71.1850 281° West 503 579 32,000  Level FlightAware ADS-B
Mon 07:48:07 PM 59.7040 71.0310 281° West 503 579 32,000  Level FlightAware ADS-B
Mon 07:48:57 PM 59.7230 70.8380 281° West 503 579 32,000  Level FlightAware ADS-B
Mon 07:49:37 PM 59.7380 70.6840 281° West 503 579 32,000  Level FlightAware ADS-B
Mon 07:50:17 PM 59.7530 70.5300 281° West 503 579 32,000  Level FlightAware ADS-B
Mon 07:50:57 PM 59.7680 70.3760 281° West 503 579 32,000  Level FlightAware ADS-B
Mon 07:51:37 PM 59.7840 70.2210 282° West 503 579 32,000  Level FlightAware ADS-B
Mon 07:52:27 PM 59.8020 70.0280 281° West 503 579 32,000  Level FlightAware ADS-B
Mon 07:53:07 PM 59.8170 69.8740 281° West 503 579 32,000  Level FlightAware ADS-B
Mon 07:53:47 PM 59.8330 69.7190 282° West 503 579 32,000  Level FlightAware ADS-B
Mon 07:54:27 PM 59.8480 69.5650 281° West 503 579 32,000  Level FlightAware ADS-B
Mon 07:55:07 PM 59.8630 69.4100 281° West 503 579 32,000  Level FlightAware ADS-B
Mon 07:55:57 PM 59.8820 69.2170 281° West 503 579 32,000 21 Level FlightAware ADS-B
Mon 07:58:00 PM 59.9294 68.7367 281° West  Level Estimated
Mon 07:59:00 PM 59.9519 68.5019 281° West  Level Estimated
Mon 08:00:00 PM 59.9740 68.2668 281° West  Level Estimated
Mon 08:01:00 PM 59.9956 68.0314 281° West  Level Estimated
Mon 08:02:00 PM 60.0169 67.7956 280° West  Level Estimated
Mon 08:03:00 PM 60.0377 67.5596 280° West  Level Estimated
Mon 08:04:00 PM 60.0581 67.3233 280° West  Level Estimated
Mon 08:05:00 PM 60.0780 67.0867 280° West  Level Estimated
Mon 08:06:00 PM 60.0976 66.8498 279° West  Level Estimated
Mon 08:07:00 PM 60.1167 66.6126 279° West  Level Estimated
Mon 08:08:00 PM 60.1354 66.3752 279° West  Level Estimated
Mon 08:09:00 PM 60.1537 66.1375 279° West  Level Estimated
Mon 08:10:00 PM 60.1716 65.8995 279° West  Level Estimated
Mon 08:11:00 PM 60.1890 65.6612 278° West  Level Estimated
Mon 08:12:00 PM 60.2060 65.4228 278° West  Level Estimated
Mon 08:13:00 PM 60.2225 65.1841 278° West  Level Estimated
Mon 08:14:00 PM 60.2387 64.9451 278° West  Level Estimated
Mon 08:15:00 PM 60.2544 64.7059 278° West  Level Estimated
Mon 08:16:00 PM 60.2697 64.4665 277° West  Level Estimated
Mon 08:17:00 PM 60.2845 64.2268 277° West  Level Estimated
Mon 08:18:00 PM 60.2989 63.9870 277° West  Level Estimated
Mon 08:19:00 PM 60.3129 63.7469 277° West  Level Estimated
Mon 08:20:00 PM 60.3265 63.5066 277° West  Level Estimated
Mon 08:21:00 PM 60.3396 63.2662 276° West  Level Estimated
Mon 08:22:00 PM 60.3522 63.0255 276° West  Level Estimated
Mon 08:23:00 PM 60.3645 62.7847 276° West  Level Estimated
Mon 08:24:00 PM 60.3763 62.5437 276° West  Level Estimated
Mon 08:25:00 PM 60.3877 62.3025 276° West  Level Estimated
Mon 08:26:00 PM 60.3986 62.0611 275° West  Level Estimated
Mon 08:27:00 PM 60.4091 61.8196 275° West  Level Estimated
Mon 08:28:00 PM 60.4192 61.5780 275° West  Level Estimated
Mon 08:29:00 PM 60.4288 61.3362 275° West  Level Estimated
Mon 08:30:00 PM 60.4380 61.0942 275° West  Level Estimated
Mon 08:31:00 PM 60.4467 60.8521 274° West  Level Estimated
Mon 08:32:00 PM 60.4550 60.6099 274° West  Level Estimated
Mon 08:33:00 PM 60.4629 60.3676 274° West  Level Estimated
Mon 08:34:00 PM 60.4703 60.1251 274° West  Level Estimated
Mon 08:35:00 PM 60.4773 59.8826 273° West  Level Estimated
Mon 08:36:00 PM 60.4839 59.6399 273° West  Level Estimated
Mon 08:37:00 PM 60.4900 59.3972 273° West  Level Estimated
Mon 08:38:00 PM 60.4957 59.1544 273° West  Level Estimated
Mon 08:39:00 PM 60.5009 58.9114 273° West  Level Estimated
Mon 08:40:00 PM 60.5057 58.6684 272° West  Level Estimated
Mon 08:41:00 PM 60.5100 58.4254 272° West  Level Estimated
Mon 08:42:00 PM 60.5139 58.1823 272° West  Level Estimated
Mon 08:43:00 PM 60.5174 57.9391 272° West  Level Estimated
Mon 08:44:00 PM 60.5204 57.6959 272° West  Level Estimated
Mon 08:45:00 PM 60.5230 57.4526 271° West  Level Estimated
Mon 08:46:00 PM 60.5251 57.2093 271° West  Level Estimated
Mon 08:47:00 PM 60.5268 56.9660 271° West  Level Estimated
Mon 08:48:00 PM 60.5280 56.7226 271° West  Level Estimated
Mon 08:49:00 PM 60.5288 56.4792 270° West  Level Estimated
Mon 08:50:00 PM 60.5292 56.2358 270° West  Level Estimated
Mon 08:51:00 PM 60.5291 55.9925 270° West  Level Estimated
Mon 08:52:00 PM 60.5286 55.7491 270° West  Level Estimated
Mon 08:53:00 PM 60.5276 55.5057 270° West  Level Estimated
Mon 08:54:00 PM 60.5262 55.2624 269° West  Level Estimated
Mon 08:55:00 PM 60.5243 55.0190 269° West  Level Estimated
Mon 08:56:00 PM 60.5220 54.7757 269° West  Level Estimated
Mon 08:57:00 PM 60.5193 54.5325 269° West  Level Estimated
Mon 08:58:00 PM 60.5161 54.2893 269° West  Level Estimated
Mon 08:59:00 PM 60.5125 54.0461 268° West  Level Estimated
Mon 09:00:00 PM 60.5084 53.8030 268° West  Level Estimated
Mon 09:01:00 PM 60.5039 53.5600 268° West  Level Estimated
Mon 09:02:00 PM 60.4990 53.3170 268° West  Level Estimated
Mon 09:03:00 PM 60.4936 53.0741 268° West  Level Estimated
Mon 09:04:00 PM 60.4878 52.8313 267° West  Level Estimated
Mon 09:05:00 PM 60.4815 52.5886 267° West  Level Estimated
Mon 09:06:00 PM 60.4748 52.3460 267° West  Level Estimated
Mon 09:07:00 PM 60.4676 52.1035 267° West  Level Estimated
Mon 09:08:00 PM 60.4600 51.8611 266° West  Level Estimated
Mon 09:09:00 PM 60.4520 51.6188 266° West  Level Estimated
Mon 09:10:00 PM 60.4435 51.3766 266° West  Level Estimated
Mon 09:11:00 PM 60.4346 51.1346 266° West  Level Estimated
Mon 09:12:00 PM 60.4253 50.8927 266° West  Level Estimated
Mon 09:13:00 PM 60.4155 50.6510 265° West  Level Estimated
Mon 09:14:00 PM 60.4053 50.4093 265° West  Level Estimated
Mon 09:15:00 PM 60.3946 50.1679 265° West  Level Estimated
Mon 09:16:00 PM 60.3835 49.9266 265° West  Level Estimated
Mon 09:17:00 PM 60.3720 49.6855 265° West  Level Estimated
Mon 09:18:00 PM 60.3600 49.4445 264° West  Level Estimated
Mon 09:19:00 PM 60.3476 49.2038 264° West  Level Estimated
Mon 09:20:00 PM 60.3347 48.9632 264° West  Level Estimated
Mon 09:21:00 PM 60.3215 48.7228 264° West  Level Estimated
Mon 09:22:00 PM 60.3078 48.4826 264° West  Level Estimated
Mon 09:23:00 PM 60.2936 48.2426 263° West  Level Estimated
Mon 09:24:00 PM 60.2790 48.0028 263° West  Level Estimated
Mon 09:25:00 PM 60.2640 47.7633 263° West  Level Estimated
Mon 09:26:00 PM 60.2486 47.5239 263° West  Level Estimated
Mon 09:27:00 PM 60.2327 47.2848 262° West  Level Estimated
Mon 09:28:00 PM 60.2164 47.0460 262° West  Level Estimated
Mon 09:29:00 PM 60.1997 46.8073 262° West  Level Estimated
Mon 09:29:42 PM 58.7610 44.5330 262° West 483 556 34,000  Level FlightAware ADS-B
Mon 09:30:00 PM 60.1825 46.5689 262° West  Level Estimated
Mon 09:30:22 PM 58.7380 44.3940 252° West 483 556 34,000  Level FlightAware ADS-B
Mon 09:31:02 PM 58.7140 44.2540 252° West 483 556 34,000  Level FlightAware ADS-B
Mon 09:31:42 PM 58.6910 44.1150 252° West 483 556 34,000  Level FlightAware ADS-B
Mon 09:32:37 PM 58.6380 43.7990 252° West 484 557 34,000  Level FlightAware ADS-B
Mon 09:33:27 PM 58.6070 43.6120 252° West 484 557 34,000  Level FlightAware ADS-B
Mon 09:34:07 PM 58.5740 43.4220 252° West 485 558 34,000  Level FlightAware ADS-B
Mon 09:34:47 PM 58.5450 43.2580 251° West 485 558 34,000  Level FlightAware ADS-B
Mon 09:35:32 PM 58.5130 43.0760 251° West 485 558 34,000  Level FlightAware ADS-B
Mon 09:36:12 PM 58.4840 42.9170 251° West 486 559 34,000  Level FlightAware ADS-B
Mon 09:36:57 PM 58.4510 42.7330 251° West 486 559 34,000  Level FlightAware ADS-B
Mon 09:37:37 PM 58.4210 42.5710 251° West 486 559 34,000  Level FlightAware ADS-B
Mon 09:38:22 PM 58.3880 42.3910 251° West 485 558 34,000  Level FlightAware ADS-B
Mon 09:39:02 PM 58.3580 42.2290 251° West 485 558 34,000  Level FlightAware ADS-B
Mon 09:39:42 PM 58.3290 42.0720 251° West 486 559 34,000  Level FlightAware ADS-B
Mon 09:40:27 PM 58.2940 41.8880 250° West 485 558 34,000  Level FlightAware ADS-B
Mon 09:41:07 PM 58.2660 41.7380 251° West 486 559 34,000  Level FlightAware ADS-B
Mon 09:41:52 PM 58.2320 41.5610 250° West 485 558 34,000  Level FlightAware ADS-B
Mon 09:42:32 PM 58.1980 41.3890 250° West 484 557 34,000  Level FlightAware ADS-B
Mon 09:43:12 PM 58.1680 41.2340 250° West 484 557 34,000  Level FlightAware ADS-B
Mon 09:43:57 PM 58.1340 41.0560 250° West 485 558 34,000  Level FlightAware ADS-B
Mon 09:44:37 PM 58.1020 40.8950 249° West 486 559 34,000  Level FlightAware ADS-B
Mon 09:45:22 PM 58.0670 40.7230 249° West 486 559 34,000  Level FlightAware ADS-B
Mon 09:46:02 PM 58.0350 40.5610 250° West 485 558 34,000  Level FlightAware ADS-B
Mon 09:46:47 PM 57.9990 40.3840 249° West 486 559 34,000  Level FlightAware ADS-B
Mon 09:47:27 PM 57.9660 40.2260 249° West 487 560 34,000  Level FlightAware ADS-B
Mon 09:48:12 PM 57.9300 40.0500 249° West 488 562 34,000  Level FlightAware ADS-B
Mon 09:48:52 PM 57.8970 39.8940 248° West 487 560 34,000  Level FlightAware ADS-B
Mon 09:49:32 PM 57.8630 39.7330 248° West 486 559 34,000  Level FlightAware ADS-B
Mon 09:50:17 PM 57.8270 39.5630 248° West 486 559 34,000  Level FlightAware ADS-B
Mon 09:50:57 PM 57.7930 39.4040 248° West 486 559 34,000  Level FlightAware ADS-B
Mon 09:51:42 PM 57.7470 39.2370 243° Southwest 489 563 34,000  Level FlightAware ADS-B
Mon 09:52:22 PM 57.6920 39.1000 233° Southwest 490 564 34,000  Level FlightAware ADS-B
Mon 09:53:02 PM 57.6380 38.9710 232° Southwest 490 564 34,000  Level FlightAware ADS-B
Mon 09:53:42 PM 57.5820 38.8370 232° Southwest 490 564 34,000  Level FlightAware ADS-B
Mon 09:54:27 PM 57.5180 38.6850 232° Southwest 489 563 34,000  Level FlightAware ADS-B
Mon 09:55:12 PM 57.4540 38.5360 231° Southwest 489 563 34,000  Level FlightAware ADS-B
Mon 09:55:52 PM 57.3990 38.4060 232° Southwest 489 563 34,000  Level FlightAware ADS-B
Mon 09:56:32 PM 57.3420 38.2740 231° Southwest 488 562 34,000  Level FlightAware ADS-B
Mon 09:57:17 PM 57.2800 38.1270 232° Southwest 487 560 34,000  Level FlightAware ADS-B
Mon 09:57:57 PM 57.2260 37.9950 233° Southwest 488 562 34,000  Level FlightAware ADS-B
Mon 09:58:42 PM 57.1650 37.8480 233° Southwest 489 563 34,000  Level FlightAware ADS-B
Mon 09:59:22 PM 57.1130 37.7120 235° Southwest 488 562 34,000  Level FlightAware ADS-B
Mon 10:00:02 PM 57.0780 37.5630 247° West 489 563 34,000  Level FlightAware ADS-B
Mon 10:00:47 PM 57.0410 37.3860 249° West 489 563 34,000  Level FlightAware ADS-B
Mon 10:01:27 PM 57.0090 37.2300 249° West 490 564 34,000  Level FlightAware ADS-B
Mon 10:02:12 PM 56.9730 37.0560 249° West 490 564 34,000  Level FlightAware ADS-B
Mon 10:02:47 PM 56.9440 36.9200 249° West 490 564 34,000  Level FlightAware ADS-B
Mon 10:03:32 PM 56.9080 36.7490 249° West 490 564 34,000  Level FlightAware ADS-B
Mon 10:04:17 PM 56.8700 36.5730 249° West 490 564 34,000  Level FlightAware ADS-B
Mon 10:04:57 PM 56.8380 36.4210 249° West 490 564 34,000  Level FlightAware ADS-B
Mon 10:05:37 PM 56.8070 36.2710 249° West 490 564 34,000  Level FlightAware ADS-B
Mon 10:06:22 PM 56.7700 36.0930 249° West 490 564 34,000  Level FlightAware ADS-B
Mon 10:07:02 PM 56.7370 35.9380 249° West 490 564 34,000  Level FlightAware ADS-B
Mon 10:07:47 PM 56.7000 35.7660 249° West 490 564 34,000  Level FlightAware ADS-B
Mon 10:08:27 PM 56.6660 35.6120 248° West 491 565 34,000  Level FlightAware ADS-B
Mon 10:09:07 PM 56.6330 35.4590 249° West 491 565 34,000  Level FlightAware ADS-B
Mon 10:09:52 PM 56.5960 35.2900 248° West 491 565 34,000  Level FlightAware ADS-B
Mon 10:10:32 PM 56.5620 35.1340 248° West 491 565 34,000  Level FlightAware ADS-B
Mon 10:11:17 PM 56.5220 34.9630 247° West 492 566 34,000  Level FlightAware ADS-B
Mon 10:11:57 PM 56.4810 34.8210 242° Southwest 490 564 34,000  Level FlightAware ADS-B
Mon 10:12:42 PM 56.4330 34.6690 240° Southwest 489 563 34,000  Level FlightAware ADS-B
Mon 10:13:22 PM 56.3850 34.5220 240° Southwest 489 563 34,000  Level FlightAware ADS-B
Mon 10:14:02 PM 56.3390 34.3790 240° Southwest 489 563 34,000  Level FlightAware ADS-B
Mon 10:14:47 PM 56.2870 34.2210 239° Southwest 489 563 34,000  Level FlightAware ADS-B
Mon 10:15:27 PM 56.2420 34.0830 240° Southwest 489 563 34,000  Level FlightAware ADS-B
Mon 10:16:12 PM 56.1890 33.9260 239° Southwest 490 564 34,000  Level FlightAware ADS-B
Mon 10:16:52 PM 56.1430 33.7900 239° Southwest 490 564 34,000  Level FlightAware ADS-B
Mon 10:17:32 PM 56.0960 33.6510 239° Southwest 491 565 34,000  Level FlightAware ADS-B
Mon 10:18:17 PM 56.0420 33.4930 239° Southwest 492 566 34,000  Level FlightAware ADS-B
Mon 10:18:57 PM 55.9960 33.3560 239° Southwest 492 566 34,000  Level FlightAware ADS-B
Mon 10:19:42 PM 55.9430 33.1980 239° Southwest 492 566 34,000  Level FlightAware ADS-B
Mon 10:20:22 PM 55.8950 33.0590 238° Southwest 492 566 34,000  Level FlightAware ADS-B
Mon 10:21:02 PM 55.8550 32.9190 243° Southwest 494 568 34,000  Level FlightAware ADS-B
Mon 10:21:47 PM 55.8280 32.7380 255° West 497 572 34,000  Level FlightAware ADS-B
Mon 10:22:27 PM 55.8070 32.5790 257° West 499 574 34,000  Level FlightAware ADS-B
Mon 10:23:07 PM 55.7870 32.4190 258° West 499 574 34,000  Level FlightAware ADS-B
Mon 10:23:52 PM 55.7640 32.2410 257° West 500 575 34,000  Level FlightAware ADS-B
Mon 10:24:32 PM 55.7440 32.0930 257° West 500 575 34,000  Level FlightAware ADS-B
Mon 10:25:12 PM 55.7230 31.9410 256° West 500 575 34,000  Level FlightAware ADS-B
Mon 10:25:52 PM 55.7040 31.8050 256° West 500 575 34,000  Level FlightAware ADS-B
Mon 10:26:42 PM 55.6800 31.6360 256° West 500 575 34,000  Level FlightAware ADS-B
Mon 10:27:22 PM 55.6610 31.5010 256° West 500 575 34,000  Level FlightAware ADS-B
Mon 10:28:02 PM 55.6420 31.3660 256° West 500 575 34,000  Level FlightAware ADS-B
Mon 10:28:42 PM 55.6230 31.2300 256° West 500 575 34,000  Level FlightAware ADS-B
Mon 10:29:22 PM 55.6040 31.0950 256° West 500 575 34,000  Level FlightAware ADS-B
Mon 10:30:02 PM 55.5850 30.9600 256° West 500 575 34,000  Level FlightAware ADS-B
Mon 10:30:52 PM 55.5610 30.7920 256° West 500 575 34,000  Level FlightAware ADS-B
Mon 10:31:32 PM 55.5420 30.6570 256° West 500 575 34,000  Level FlightAware ADS-B
Mon 10:32:12 PM 55.5230 30.5220 256° West 500 575 34,000  Level FlightAware ADS-B
Mon 10:32:52 PM 55.5040 30.3870 256° West 500 575 34,000  Level FlightAware ADS-B
Mon 10:33:32 PM 55.4850 30.2520 256° West 500 575 34,000  Level FlightAware ADS-B
Mon 10:34:17 PM 55.4010 29.7730 253° West 505 581 34,000  Level FlightAware ADS-B
Mon 10:35:02 PM 55.3720 29.5900 254° West 505 581 34,000  Level FlightAware ADS-B
Mon 10:35:42 PM 55.3460 29.4240 255° West 505 581 34,000  Level FlightAware ADS-B
Mon 10:36:27 PM 55.3180 29.2520 254° West 506 582 34,000  Level FlightAware ADS-B
Mon 10:37:07 PM 55.2930 29.0970 254° West 507 583 34,000  Level FlightAware ADS-B
Mon 10:37:52 PM 55.2630 28.9130 254° West 507 583 34,000  Level FlightAware ADS-B
Mon 10:38:32 PM 55.2370 28.7560 254° West 506 582 34,000  Level FlightAware ADS-B
Mon 10:39:12 PM 55.2110 28.6010 254° West 505 581 34,000  Level FlightAware ADS-B
Mon 10:39:57 PM 55.1810 28.4260 253° West 505 581 34,000  Level FlightAware ADS-B
Mon 10:40:37 PM 55.1550 28.2690 254° West 506 582 34,000  Level FlightAware ADS-B
Mon 10:41:32 PM 55.1190 28.0620 253° West 506 582 34,000  Level FlightAware ADS-B
Mon 10:42:17 PM 55.0880 27.8810 253° West 504 580 34,000  Level FlightAware ADS-B
Mon 10:42:57 PM 55.0610 27.7250 253° West 504 580 34,000  Level FlightAware ADS-B
Mon 10:43:42 PM 55.0280 27.5440 252° West 504 580 34,000  Level FlightAware ADS-B
Mon 10:44:22 PM 55.0010 27.3900 253° West 503 579 34,000  Level FlightAware ADS-B
Mon 10:45:02 PM 54.9740 27.2420 252° West 503 579 34,000  Level FlightAware ADS-B
Mon 10:45:47 PM 54.9430 27.0680 253° West 504 580 34,000  Level FlightAware ADS-B
Mon 10:46:27 PM 54.9140 26.9090 252° West 503 579 34,000  Level FlightAware ADS-B
Mon 10:47:07 PM 54.8850 26.7540 252° West 504 580 34,000  Level FlightAware ADS-B
Mon 10:47:52 PM 54.8540 26.5840 252° West 503 579 34,000  Level FlightAware ADS-B
Mon 10:48:32 PM 54.8250 26.4310 252° West 503 579 34,000  Level FlightAware ADS-B
Mon 10:49:17 PM 54.7930 26.2630 252° West 503 579 34,000  Level FlightAware ADS-B
Mon 10:49:57 PM 54.7640 26.1110 252° West 503 579 34,000  Level FlightAware ADS-B
Mon 10:50:42 PM 54.7300 25.9360 251° West 504 580 34,000  Level FlightAware ADS-B
Mon 10:51:22 PM 54.7010 25.7830 252° West 503 579 34,000  Level FlightAware ADS-B
Mon 10:52:02 PM 54.6700 25.6300 251° West 503 579 34,000  Level FlightAware ADS-B
Mon 10:52:47 PM 54.6350 25.4590 251° West 503 579 34,000  Level FlightAware ADS-B
Mon 10:53:27 PM 54.6050 25.3140 250° West 505 581 34,000  Level FlightAware ADS-B
Mon 10:54:07 PM 54.5740 25.1620 251° West 507 583 34,000  Level FlightAware ADS-B
Mon 10:54:52 PM 54.5380 24.9880 250° West 508 585 34,000  Level FlightAware ADS-B
Mon 10:55:32 PM 54.5060 24.8340 250° West 510 587 34,000  Level FlightAware ADS-B
Mon 10:56:17 PM 54.4700 24.6660 250° West 511 588 34,000  Level FlightAware ADS-B
Mon 10:56:52 PM 54.4440 24.5410 250° West 512 589 34,000  Level FlightAware ADS-B
Mon 10:57:42 PM 54.4010 24.3420 250° West 514 592 34,000  Level FlightAware ADS-B
Mon 10:58:22 PM 54.3680 24.1890 250° West 514 592 34,000  Level FlightAware ADS-B
Mon 10:59:02 PM 54.3340 24.0370 249° West 514 592 34,000  Level FlightAware ADS-B
Mon 10:59:47 PM 54.2960 23.8620 250° West 513 590 34,000  Level FlightAware ADS-B
Mon 11:00:27 PM 54.2620 23.7100 249° West 512 589 34,000  Level FlightAware ADS-B
Mon 11:01:07 PM 54.2290 23.5590 250° West 512 589 34,000  Level FlightAware ADS-B
Mon 11:01:52 PM 54.1920 23.3970 249° West 514 592 34,000  Level FlightAware ADS-B
Mon 11:02:32 PM 54.1560 23.2480 248° West 516 594 34,000  Level FlightAware ADS-B
Mon 11:03:17 PM 54.1130 23.0740 247° West 515 593 34,000  Level FlightAware ADS-B
Mon 11:03:57 PM 54.0760 22.9260 247° West 515 593 34,000  Level FlightAware ADS-B
Mon 11:04:42 PM 54.0400 22.7570 250° West 514 592 34,000  Level FlightAware ADS-B
Mon 11:05:22 PM 54.0090 22.6060 251° West 513 590 34,000  Level FlightAware ADS-B
Mon 11:06:02 PM 53.9780 22.4530 251° West 512 589 34,000  Level FlightAware ADS-B
Mon 11:06:47 PM 53.9430 22.2840 251° West 512 589 34,000  Level FlightAware ADS-B
Mon 11:07:27 PM 53.9100 22.1270 250° West 510 587 34,000  Level FlightAware ADS-B
Mon 11:08:12 PM 53.8750 21.9620 250° West 508 585 34,000  Level FlightAware ADS-B
Mon 11:08:52 PM 53.8440 21.8160 250° West 509 586 34,000  Level FlightAware ADS-B
Mon 11:09:32 PM 53.8120 21.6670 250° West 507 583 34,000  Level FlightAware ADS-B
Mon 11:10:17 PM 53.7740 21.4940 250° West 505 581 34,000  Level FlightAware ADS-B
Mon 11:10:57 PM 53.7420 21.3450 250° West 504 580 34,000  Level FlightAware ADS-B
Mon 11:11:42 PM 53.7060 21.1850 249° West 502 578 34,000  Level FlightAware ADS-B
Mon 11:12:22 PM 53.6740 21.0400 250° West 498 573 34,000  Level FlightAware ADS-B
Mon 11:13:02 PM 53.6420 20.8960 250° West 497 572 34,000  Level FlightAware ADS-B
Mon 11:13:47 PM 53.6050 20.7300 249° West 495 570 34,000  Level FlightAware ADS-B
Mon 11:14:27 PM 53.5730 20.5880 249° West 492 566 34,000  Level FlightAware ADS-B
Mon 11:15:12 PM 53.5360 20.4270 249° West 490 564 34,000  Level FlightAware ADS-B
Mon 11:15:52 PM 53.5040 20.2860 249° West 488 562 34,000  Level FlightAware ADS-B
Mon 11:16:32 PM 53.4710 20.1430 249° West 488 562 34,000  Level FlightAware ADS-B
Mon 11:17:17 PM 53.4350 19.9900 249° West 488 562 34,000  Level FlightAware ADS-B
Mon 11:17:57 PM 53.4020 19.8470 249° West 490 564 34,000  Level FlightAware ADS-B
Mon 11:18:42 PM 53.3660 19.6940 249° West 488 562 34,000  Level FlightAware ADS-B
Mon 11:19:22 PM 53.3310 19.5470 248° West 486 559 34,000  Level FlightAware ADS-B
Mon 11:20:02 PM 53.2980 19.4100 248° West 485 558 34,000  Level FlightAware ADS-B
Mon 11:20:47 PM 53.2610 19.2550 248° West 484 557 34,000  Level FlightAware ADS-B
Mon 11:21:27 PM 53.2280 19.1190 248° West 482 555 34,000  Level FlightAware ADS-B
Mon 11:22:12 PM 53.1890 18.9590 248° West 482 555 34,000  Level FlightAware ADS-B
Mon 11:22:52 PM 53.1550 18.8240 247° West 482 555 34,000  Level FlightAware ADS-B
Mon 11:23:32 PM 53.1210 18.6840 248° West 480 552 34,000  Level FlightAware ADS-B
Mon 11:24:17 PM 53.0830 18.5320 247° West 477 549 34,000  Level FlightAware ADS-B
Mon 11:24:57 PM 53.0510 18.4030 248° West 475 547 34,000  Level FlightAware ADS-B
Mon 11:25:37 PM 53.0170 18.2680 247° West 475 547 34,000  Level FlightAware ADS-B
Mon 11:26:22 PM 52.9780 18.1140 247° West 473 544 34,000  Level FlightAware ADS-B
Mon 11:27:02 PM 52.9440 17.9820 247° West 472 543 34,000  Level FlightAware ADS-B
Mon 11:27:42 PM 52.9100 17.8480 247° West 472 543 34,000  Level FlightAware ADS-B
Mon 11:28:27 PM 52.8730 17.7030 247° West 472 543 34,000  Level FlightAware ADS-B
Mon 11:29:07 PM 52.8380 17.5710 246° West 469 540 34,000  Level FlightAware ADS-B
Mon 11:29:52 PM 52.7990 17.4220 247° West 469 540 34,000  Level FlightAware ADS-B
Mon 11:30:32 PM 52.7650 17.2900 247° West 468 539 34,000  Level FlightAware ADS-B
Mon 11:31:17 PM 52.7260 17.1460 246° West 468 539 34,000  Level FlightAware ADS-B
Mon 11:31:57 PM 52.6950 17.0270 247° West 468 539 34,000  Level FlightAware ADS-B
Mon 11:32:42 PM 52.6530 16.8710 246° West 468 539 34,000  Level FlightAware ADS-B
Mon 11:33:22 PM 52.6170 16.7360 246° West 466 536 34,000  Level FlightAware ADS-B
Mon 11:34:07 PM 52.5780 16.5940 246° West 466 536 34,000  Level FlightAware ADS-B
Mon 11:34:47 PM 52.5430 16.4640 246° West 466 536 34,000  Level FlightAware ADS-B
Mon 11:35:32 PM 52.5030 16.3180 246° West 465 535 34,000  Level FlightAware ADS-B
Mon 11:36:12 PM 52.4670 16.1900 245° Southwest 465 535 34,000  Level FlightAware ADS-B
Mon 11:36:52 PM 52.4310 16.0600 246° West 464 534 34,000  Level FlightAware ADS-B
Mon 11:37:37 PM 52.3930 15.9210 246° West 464 534 34,000  Level FlightAware ADS-B
Mon 11:38:17 PM 52.3580 15.7970 245° Southwest 463 533 34,000  Level FlightAware ADS-B
Mon 11:38:57 PM 52.3210 15.6650 245° Southwest 462 532 34,000  Level FlightAware ADS-B
Mon 11:39:42 PM 52.2820 15.5280 245° Southwest 459 528 34,000  Level FlightAware ADS-B
Mon 11:40:22 PM 52.2480 15.4080 245° Southwest 457 526 34,000  Level FlightAware ADS-B
Mon 11:41:07 PM 52.2050 15.2580 245° Southwest 458 527 34,000  Level FlightAware ADS-B
Mon 11:41:47 PM 52.1680 15.1320 244° Southwest 458 527 34,000  Level FlightAware ADS-B
Mon 11:42:32 PM 52.1280 14.9940 245° Southwest 460 529 34,000  Level FlightAware ADS-B
Mon 11:43:07 PM 52.0970 14.8880 245° Southwest 461 531 34,000  Level FlightAware ADS-B
Mon 11:43:42 PM 52.0640 14.7750 245° Southwest 460 529  Descending FlightAware ADS-B
Mon 11:44:22 PM 52.0300 14.6520 246° West 462 532 34,000 25,500 Climbing FlightAware ADS-B
Mon 11:45:02 PM 51.9950 14.5220 246° West 463 533 34,000  Level FlightAware ADS-B
Mon 11:45:42 PM 51.9610 14.3970 246° West 465 535 34,000  Level FlightAware ADS-B
Mon 11:46:27 PM 51.9210 14.2540 246° West 465 535 34,000  Level FlightAware ADS-B
Mon 11:47:07 PM 51.8850 14.1260 246° West 465 535 34,000  Level FlightAware ADS-B
Mon 11:47:52 PM 51.8450 13.9840 246° West 465 535 34,000  Level FlightAware ADS-B
Mon 11:48:32 PM 51.8110 13.8620 246° West 466 536 34,000  Level FlightAware ADS-B
Mon 11:49:12 PM 51.7750 13.7330 246° West 464 534 34,000  Level FlightAware ADS-B
Mon 11:49:57 PM 51.7340 13.5920 245° Southwest 465 535 34,000  Level FlightAware ADS-B
Mon 11:50:42 PM 51.6950 13.4530 246° West 463 533 34,000  Level FlightAware ADS-B
Mon 11:51:22 PM 51.6570 13.3220 245° Southwest 461 531 34,000  Level FlightAware ADS-B
Mon 11:52:02 PM 51.6210 13.1980 245° Southwest 460 529 34,000  Level FlightAware ADS-B
Mon 11:52:42 PM 51.5850 13.0730 245° Southwest 459 528 34,000  Level FlightAware ADS-B
Mon 11:53:27 PM 51.5470 12.9440 245° Southwest 458 527 34,000  Level FlightAware ADS-B
Mon 11:54:07 PM 51.5110 12.8210 245° Southwest 458 527 34,000  Level FlightAware ADS-B
Mon 11:54:52 PM 51.4670 12.6730 245° Southwest 458 527 34,000  Level FlightAware ADS-B
Mon 11:55:32 PM 51.4330 12.5600 244° Southwest 458 527 34,000  Level FlightAware ADS-B
Mon 11:56:17 PM 51.3850 12.4240 241° Southwest 458 527 34,000 -71 Level FlightAware ADS-B
Mon 11:56:57 PM 51.3430 12.3070 240° Southwest 457 526 33,900 -750 Descending FlightAware ADS-B
Mon 11:57:37 PM 51.3000 12.1910 239° Southwest 458 527 33,000 -1,412 Descending FlightAware ADS-B
Mon 11:58:22 PM 51.2530 12.0520 242° Southwest 459 528 31,900 -1,553 Descending FlightAware ADS-B
Mon 11:59:02 PM 51.2150 11.9300 244° Southwest 459 528 30,800 -1,482 Descending FlightAware ADS-B
Mon 11:59:47 PM 51.1750 11.7960 245° Southwest 458 527 29,800 -1,341 Descending FlightAware ADS-B
Tue 12:00:27 AM 51.1390 11.6760 244° Southwest 455 524 28,900 -1,341 Descending FlightAware ADS-B
Tue 12:01:12 AM 51.0990 11.5420 245° Southwest 453 521 27,900 -1,412 Descending FlightAware ADS-B
Tue 12:01:52 AM 51.0630 11.4240 244° Southwest 451 519 26,900 -1,125 Descending FlightAware ADS-B
Tue 12:02:32 AM 51.0290 11.3150 244° Southwest 436 502 26,400 -1,200 Descending FlightAware ADS-B
Tue 12:03:17 AM 50.9900 11.1880 244° Southwest 416 479 25,200 -1,694 Descending FlightAware ADS-B
Tue 12:03:57 AM 50.9580 11.0850 244° Southwest 411 473 24,000 -2,025 Descending FlightAware ADS-B
Tue 12:04:37 AM 50.9230 10.9740 243° Southwest 406 467 22,500 -1,412 Descending FlightAware ADS-B
Tue 12:05:22 AM 50.8860 10.8550 244° Southwest 400 460 22,000 -353 Descending FlightAware ADS-B
Tue 12:06:02 AM 50.8520 10.7480 243° Southwest 402 463 22,000 -635 Level FlightAware ADS-B
Tue 12:06:47 AM 50.8160 10.6340 243° Southwest 395 455 21,100 -988 Descending FlightAware ADS-B
Tue 12:07:27 AM 50.7830 10.5310 243° Southwest 378 435 20,600 -1,125 Descending FlightAware ADS-B
Tue 12:08:07 AM 50.7530 10.4380 243° Southwest 374 430 19,600 -1,553 Descending FlightAware ADS-B
Tue 12:08:52 AM 50.7170 10.3240 244° Southwest 367 422 18,400 -1,575 Descending FlightAware ADS-B
Tue 12:09:27 AM 50.6900 10.2400 243° Southwest 365 420 17,500 -1,482 Descending FlightAware ADS-B
Tue 12:10:17 AM 50.6520 10.1230 243° Southwest 359 413 16,300 -1,533 Descending FlightAware ADS-B
Tue 12:10:57 AM 50.6220 10.0290 243° Southwest 350 403 15,200 -1,500 Descending FlightAware ADS-B
Tue 12:11:37 AM 50.5940 9.9440 243° Southwest 338 389 14,300 -1,482 Descending FlightAware ADS-B
Tue 12:12:22 AM 50.5620 9.8450 243° Southwest 331 381 13,100 -1,694 Descending FlightAware ADS-B
Tue 12:13:02 AM 50.5330 9.7570 243° Southwest 327 376 11,900 -1,482 Descending FlightAware ADS-B
Tue 12:13:47 AM 50.4960 9.6650 238° Southwest 333 383 11,000 -706 Descending FlightAware ADS-B
Tue 12:14:27 AM 50.4580 9.5910 231° Southwest 319 367 10,900 -900 Descending FlightAware ADS-B
Tue 12:15:07 AM 50.4200 9.5180 231° Southwest 313 360 9,800 -1,800 Descending FlightAware ADS-B
Tue 12:15:37 AM 50.3910 9.4620 231° Southwest 312 359 8,800 -1,800 Descending FlightAware ADS-B
Tue 12:16:07 AM 50.3630 9.4090 230° Southwest 311 358 8,000 -1,636 Descending FlightAware ADS-B
Tue 12:16:32 AM 50.3430 9.3700 231° Southwest 310 357 7,300 -1,091 Descending FlightAware ADS-B
Tue 12:17:02 AM 50.3140 9.3140 231° Southwest 286 329 7,000 -327 Descending FlightAware ADS-B
Tue 12:17:27 AM 50.2950 9.2770 231° Southwest 262 302 7,000 -267 Level FlightAware ADS-B
Tue 12:17:47 AM 50.2800 9.2480 231° Southwest 256 295 6,800 -655 Descending FlightAware ADS-B
Tue 12:18:22 AM 50.2530 9.1970 230° Southwest 236 272 6,400 -738 Descending FlightAware ADS-B
Tue 12:18:52 AM 50.2330 9.1580 231° Southwest 231 266 6,000 -1,000 Descending FlightAware ADS-B
Tue 12:19:22 AM 50.2120 9.1190 230° Southwest 231 266 5,400 -1,200 Descending FlightAware ADS-B
Tue 12:19:47 AM 50.1950 9.0870 230° Southwest 231 266 4,900 -600 Descending FlightAware ADS-B
Tue 12:20:22 AM 50.1760 9.0510 231° Southwest 231 266 4,800 -706 Descending FlightAware ADS-B
Tue 12:21:12 AM 50.1380 8.9780 231° Southwest 237 273 3,900 -771 Descending FlightAware ADS-B
Tue 12:21:32 AM 50.1270 8.9550 233° Southwest 239 275 3,900  Level FlightAware ADS-B
Tue 12:22:12 AM 50.1130 8.8940 250° West 219 252 3,900  Level FlightAware ADS-B
Tue 12:22:37 AM 50.1050 8.8590 250° West 219 252 3,900 -912 Level FlightAware ADS-B
Tue 12:23:17 AM 50.0910 8.8000 250° West 3,100 -1,140 Descending FlightAware ADS-B
Tue 12:24:17 AM 50.0720 8.7210 249° West 183 211 2,000 -988 Descending FlightAware ADS-B
Tue 12:24:42 AM 50.0650 8.6930 249° West 165 190 1,700 -750 Descending FlightAware ADS-B
Tue 12:24:57 AM 50.0620 8.6770 254° West 160 184 1,500 -400 Descending FlightAware ADS-B
Tue 12:25:27 AM 50.0540 8.6440 249° West 160 184 1,400 -200 Descending FlightAware ADS-B
Tue 12:28:00 AM 50.0264 8.5431 247° West  Level Estimated
Tue 12:29:00 AM 50.0264 8.5431 73° East  Level Estimated
Tue 12:30:00 AM 50.0264 8.5431 73° East  Level Estimated
Tue 12:31:00 AM 50.0264 8.5431 73° East  Level Estimated
Tue 12:32:00 AM 50.0264 8.5431 73° East  Level Estimated
Tue 12:33:00 AM 50.0264 8.5431 73° East  Level Estimated
Tue 12:34:00 AM 50.0264 8.5431 73° East  Level Estimated
Tue 12:35:00 AM 50.0264 8.5431 73° East  Level Estimated
Tue 12:36:00 AM 50.0264 8.5431 73° East  Level Estimated
Tue 12:37:00 AM 50.0264 8.5431 73° East  Level Estimated
Tue 12:38:00 AM 50.0264 8.5431 73° East  Level Estimated
Tue 12:39:00 AM 50.0264 8.5431 73° East  Level Estimated
Tue 12:40:00 AM 50.0264 8.5431 73° East  Level Estimated
Tue 12:41:00 AM 50.0264 8.5431 73° East  Level Estimated
Tue 12:42:00 AM 50.0264 8.5431 73° East  Level Estimated
Tue 12:43:00 AM 50.0264 8.5431 73° East  Level Estimated

Login

Don't have an account? Register now (free) for customized features, flight alerts, and more!